createdAt,value
2023-03-23T15:58:22.372Z,100252.06
2023-03-23T16:00:51.956Z,100268.91
2023-03-23T16:03:25.182Z,100267.88
2023-03-23T16:05:51.981Z,100250.28
2023-03-23T16:08:18.494Z,100238.50
2023-03-23T16:10:45.130Z,100230.91
2023-03-23T16:13:11.835Z,100232.66
2023-03-23T16:15:39.941Z,100231.47
2023-03-23T16:18:06.915Z,100241.88
2023-03-23T16:20:33.746Z,100251.09
2023-03-23T16:23:01.085Z,100250.06
2023-03-23T16:25:27.631Z,100249.03
2023-03-23T16:27:54.522Z,100257.22
2023-03-23T16:30:25.632Z,100250.06
2023-03-23T16:32:55.418Z,100243.03
2023-03-23T16:35:23.783Z,100240.78
2023-03-23T16:38:08.309Z,100243.97
2023-03-23T16:40:36.881Z,100264.13
2023-03-23T16:43:08.405Z,100262.03
2023-03-23T16:45:43.142Z,100267.03
2023-03-23T16:48:10.944Z,100268.78
2023-03-23T16:50:38.175Z,100259.22
2023-03-23T16:53:06.669Z,100266.00
2023-03-23T16:55:33.694Z,100266.00
2023-03-23T16:58:15.358Z,100276.53
2023-03-23T17:00:45.638Z,100277.00
2023-03-23T17:03:13.351Z,100280.78
2023-03-23T17:05:40.178Z,100276.72
2023-03-23T17:08:07.298Z,100267.03
2023-03-23T17:10:33.822Z,100261.56
2023-03-23T17:13:00.405Z,100254.69
2023-03-23T17:15:26.928Z,100255.94
2023-03-23T17:17:55.037Z,100256.00
2023-03-23T17:20:22.268Z,100252.91
2023-03-23T17:22:48.968Z,100253.28
2023-03-23T17:25:15.687Z,100256.19
2023-03-23T17:27:42.757Z,100246.97
2023-03-23T17:30:10.931Z,100253.47
2023-03-23T17:32:38.402Z,100245.47
2023-03-23T17:35:06.475Z,100248.84
2023-03-23T17:37:33.385Z,100244.63
2023-03-23T17:40:00.171Z,100246.13
2023-03-23T17:42:27.182Z,100249.69
2023-03-23T17:44:53.903Z,100243.41
2023-03-23T17:47:20.563Z,100237.75
2023-03-23T17:49:47.860Z,100233.25
2023-03-23T17:52:14.561Z,100236.44
2023-03-23T17:54:41.206Z,100241.72
2023-03-23T17:57:07.784Z,100233.72
2023-03-23T17:59:34.422Z,100232.41
2023-03-23T18:02:01.023Z,100234.09
2023-03-23T18:04:27.681Z,100242.28
2023-03-23T18:06:56.375Z,100238.03
2023-03-23T18:09:23.410Z,100234.47
2023-03-23T18:11:49.980Z,100233.63
2023-03-23T18:14:16.592Z,100228.63
2023-03-23T18:16:43.254Z,100225.06
2023-03-23T18:19:10.124Z,100217.44
2023-03-23T18:21:36.576Z,100203.41
2023-03-23T18:24:03.600Z,100198.41
2023-03-23T18:26:30.352Z,100202.66
2023-03-23T18:28:56.960Z,100194.84
2023-03-23T18:31:23.940Z,100194.00
2023-03-23T18:33:51.558Z,100195.03
2023-03-23T18:36:20.798Z,100192.69
2023-03-23T18:38:48.727Z,100195.41
2023-03-23T18:41:16.283Z,100187.03
2023-03-23T18:43:43.457Z,100195.59
2023-03-23T18:46:10.250Z,100192.88
2023-03-23T18:48:37.530Z,100189.94
2023-03-23T18:51:04.478Z,100182.81
2023-03-23T18:53:31.549Z,100189.31
2023-03-23T18:56:07.438Z,100181.47
2023-03-23T18:58:34.160Z,100179.03
2023-03-23T19:01:07.109Z,100172.81
2023-03-23T19:03:35.199Z,100169.91
2023-03-23T19:06:02.314Z,100166.69
2023-03-23T19:08:29.567Z,100175.53
2023-03-23T19:11:02.425Z,100168.84
2023-03-23T19:13:31.230Z,100172.63
2023-03-23T19:15:58.005Z,100169.25
2023-03-23T19:18:24.460Z,100167.81
2023-03-23T19:21:13.464Z,100152.78
2023-03-23T19:23:41.738Z,100151.44
2023-03-23T19:26:08.412Z,100142.91
2023-03-23T19:31:05.030Z,100131.78
2023-03-23T19:33:31.519Z,100132.84
2023-03-23T19:36:09.289Z,100129.06
2023-03-23T19:38:38.249Z,100129.06
2023-03-23T19:41:05.834Z,100124.66
2023-03-23T19:43:32.829Z,100119.00
2023-03-23T19:46:00.720Z,100110.81
2023-03-23T19:48:27.319Z,100114.75
2023-03-23T19:50:55.784Z,100102.81
2023-03-23T19:53:23.112Z,100115.81
2023-03-23T19:55:50.599Z,100112.88
2023-03-23T19:58:17.373Z,100103.75
2023-03-23T20:00:45.289Z,100106.66
2023-03-23T20:03:12.561Z,100107.25
2023-03-23T20:05:40.750Z,100098.47
2023-03-23T20:08:09.808Z,100101.22
2023-03-23T20:10:36.942Z,100105.94
2023-03-23T20:13:06.362Z,100113.91
2023-03-23T20:15:33.357Z,100103.28
2023-03-23T20:18:00.589Z,100104.31
2023-03-23T20:20:28.301Z,100103.47
2023-03-23T20:22:57.381Z,100104.50
2023-03-23T20:25:24.937Z,100096.06
2023-03-23T20:27:51.652Z,100095.50
2023-03-23T20:30:18.790Z,100095.75
2023-03-23T20:32:46.448Z,100093.22
2023-03-23T20:35:14.745Z,100093.22
2023-03-23T20:37:41.596Z,100091.91
2023-03-23T20:40:14.666Z,100087.88
2023-03-23T20:42:44.095Z,100080.16
2023-03-23T20:45:13.037Z,100077.03
2023-03-23T20:47:41.135Z,100071.56
2023-03-23T20:50:10.085Z,100069.31
2023-03-23T20:52:36.979Z,100068.84
2023-03-23T20:55:04.548Z,100070.09
2023-03-23T20:57:31.130Z,100071.97
2023-03-23T20:59:58.026Z,100060.00
2023-03-23T21:02:29.762Z,100061.06
2023-03-23T21:04:58.106Z,100061.06
2023-03-23T21:07:27.432Z,100062.94
2023-03-23T21:09:53.932Z,100062.09
2023-03-23T21:12:20.406Z,100058.38
2023-03-23T21:14:47.788Z,100069.03
2023-03-23T21:17:14.499Z,100058.13
2023-03-23T21:19:41.306Z,100057.69
2023-03-23T21:22:09.654Z,100048.66
2023-03-23T21:24:38.522Z,100051.44
2023-03-23T21:27:05.390Z,100040.97
2023-03-23T21:29:32.736Z,100028.75
2023-03-23T21:34:28.693Z,100029.94
2023-03-23T21:36:55.427Z,100025.97
2023-03-23T21:39:22.472Z,100022.41
2023-03-23T21:41:49.748Z,100011.47
2023-03-23T21:44:18.104Z,100019.47
2023-03-23T21:46:45.345Z,100018.44
2023-03-23T21:49:14.112Z,100012.41
2023-03-23T21:51:41.665Z,100008.38
2023-03-23T21:54:09.994Z,100004.34
2023-03-23T21:56:36.910Z,100003.31
2023-03-23T21:59:04.735Z,99999.34
2023-03-23T22:01:31.488Z,99991.34
2023-03-23T22:03:58.215Z,99999.13
2023-03-23T22:06:30.962Z,99998.28
2023-03-23T22:08:57.505Z,99993.03
2023-03-23T22:11:26.692Z,99986.34
2023-03-23T22:13:55.115Z,99993.28
2023-03-23T22:16:22.501Z,99978.56
2023-03-23T22:18:51.311Z,99982.50
2023-03-23T22:21:19.871Z,99977.91
2023-03-23T22:23:46.717Z,99984.19
2023-03-23T22:26:15.389Z,99967.84
2023-03-23T22:28:43.364Z,99959.66
2023-03-23T22:31:19.657Z,99964.25
2023-03-23T22:33:47.674Z,99960.50
2023-03-23T22:36:15.438Z,99957.38
2023-03-23T22:38:44.371Z,99949.38
2023-03-23T22:41:17.658Z,99947.50
2023-03-23T22:43:44.916Z,99935.75
2023-03-23T22:46:11.481Z,99936.59
2023-03-23T22:48:38.213Z,99921.06
2023-03-23T22:51:04.876Z,99932.38
2023-03-23T22:53:31.690Z,99919.56
2023-03-23T22:55:58.618Z,99920.22
2023-03-23T22:58:26.842Z,99922.09
2023-03-23T23:01:02.762Z,99910.16
2023-03-23T23:03:30.422Z,99911.84
2023-03-23T23:05:58.482Z,99908.47
2023-03-23T23:08:27.397Z,99889.56
2023-03-23T23:10:56.105Z,99899.63
2023-03-23T23:13:23.880Z,99903.19
2023-03-23T23:15:53.118Z,99900.47
2023-03-23T23:18:20.749Z,99895.84
2023-03-23T23:20:52.376Z,99898.59
2023-03-23T23:23:19.136Z,99892.47
2023-03-23T23:25:45.912Z,99884.28
2023-03-23T23:28:13.065Z,99879.50
2023-03-23T23:30:39.811Z,99883.25
2023-03-23T23:33:09.320Z,99871.50
2023-03-23T23:35:37.894Z,99867.72
2023-03-23T23:38:06.896Z,99865.84
2023-03-23T23:40:35.293Z,99870.47
2023-03-23T23:43:03.488Z,99871.31
2023-03-23T23:45:30.302Z,99856.41
2023-03-23T23:47:57.792Z,99852.00
2023-03-23T23:50:24.819Z,99857.66
2023-03-23T23:52:52.310Z,99844.03
2023-03-23T23:55:20.118Z,99837.72
2023-03-23T23:57:48.226Z,99841.50
